Aérodrome :
LOGIN :

S'inscrire | Disclaimer

   EN    FR    IT 

 










Légende :    VFR   VFR Marginal   IFR   IFR Intensif   IFR Très Intensif
Visi : 
Plafond : 
>= 8 km
>= 3000ft
5 à 8 km
1000 à 3000 ft
1500m à 5 km
500 à 1000 ft
800 à 1500m
200 à 500 ft
< 800m
< 200 ft
Symboles :   Orages  Brouillard  Fortes neiges  Fortes précipitations  Vent > 20 kt
SIGMETs :   Divers  Orages  Givrage  Turbulence  Onde Orograph.  Cendres Volcan.







- Altitude de l'aérodrome : 1276 ft
- Code IATA : STR


EDDS - Stuttgart

DERNIER METAR :
  • 251950Z VRB02KT 9999 -RA SCT011 OVC026 04/02 Q1009 TEMPO BKN012

METARs EXPIRÉS :
  • 251920Z 34005KT 300V360 9999 -RA SCT011 BKN022 04/02 Q1009 TEMPO BKN012
  • 251850Z 34007KT 9999 -RA FEW010 BKN022 04/02 Q1009 TEMPO BKN012
  • 251820Z 36010KT 330V030 9999 -RA FEW005 SCT011 BKN021 04/03 Q1009 TEMPO RA BKN011
  • 251750Z 36009KT 320V030 9999 -RA FEW005 SCT011 BKN025 05/03 Q1009 RERA TEMPO RA BKN011
  • 251720Z 01008KT 330V040 9999 RA FEW003 SCT011 BKN021 06/04 Q1009 TEMPO -RA BKN011

TAF TAF EDDS
Valide du 25 à 18h jusqu'au 26 à 18h UTC


251700Z 2518/2618 35005KT 9999 SCT012 BKN020
BECMG 2518/2521 BKN012
TEMPO 2518/2611 4000 RA
PROB40
TEMPO 2600/2609 2500 SNRA BKN008
PROB30
TEMPO 2600/2605 1200 SN
BECMG 2611/2613 SCT015 BKN025
Pas de NOTAMs connus pour ce terrain.



MET'MAP, la Météo Aéronautique d'un coup d'oeil ! - Copyright ORBIFLY Décembre 2007 - Disclaimer

ORBIFLY MET'MAP TEAM :

Programmation & Développement : Alexandra Zaïnal
Conception & Développement : Baudouin d'Aumeries
Co-Programmation & Développement : Marc-Olivier Méhu
Soutien technique & logistique : Manuel Goepfert

Contact : metmap@orbifly.com




SOURCES & CREDITS :

   NOAA